sensor_id;sensor_type;location;lat;lon;timestamp;temperature;humidity
12123;DHT22;6125;59.628;17.852;2023-06-26T00:00:57;17.10;99.90
12123;DHT22;6125;59.628;17.852;2023-06-26T00:03:24;17.10;99.90
12123;DHT22;6125;59.628;17.852;2023-06-26T00:05:51;17.00;99.90
12123;DHT22;6125;59.628;17.852;2023-06-26T00:08:18;16.90;99.90
12123;DHT22;6125;59.628;17.852;2023-06-26T00:10:45;16.80;99.90
12123;DHT22;6125;59.628;17.852;2023-06-26T00:13:14;16.70;99.90
12123;DHT22;6125;59.628;17.852;2023-06-26T00:15:41;16.70;99.90
12123;DHT22;6125;59.628;17.852;2023-06-26T00:18:08;16.70;99.90
12123;DHT22;6125;59.628;17.852;2023-06-26T00:20:35;16.50;99.90
12123;DHT22;6125;59.628;17.852;2023-06-26T00:23:02;16.40;99.90
12123;DHT22;6125;59.628;17.852;2023-06-26T00:25:33;16.20;99.90
12123;DHT22;6125;59.628;17.852;2023-06-26T00:28:00;16.10;99.90
12123;DHT22;6125;59.628;17.852;2023-06-26T00:30:29;16.00;99.90
12123;DHT22;6125;59.628;17.852;2023-06-26T00:32:56;16.00;99.90
12123;DHT22;6125;59.628;17.852;2023-06-26T00:35:23;15.80;99.90
12123;DHT22;6125;59.628;17.852;2023-06-26T00:37:50;15.70;99.90
12123;DHT22;6125;59.628;17.852;2023-06-26T00:40:17;15.50;99.90
12123;DHT22;6125;59.628;17.852;2023-06-26T00:42:44;15.50;99.90
12123;DHT22;6125;59.628;17.852;2023-06-26T00:45:11;15.40;99.90
12123;DHT22;6125;59.628;17.852;2023-06-26T00:47:40;15.30;99.90
12123;DHT22;6125;59.628;17.852;2023-06-26T00:50:08;15.30;99.90
12123;DHT22;6125;59.628;17.852;2023-06-26T00:52:36;15.20;99.90
12123;DHT22;6125;59.628;17.852;2023-06-26T00:55:04;15.20;99.90
12123;DHT22;6125;59.628;17.852;2023-06-26T00:57:31;15.20;99.90
12123;DHT22;6125;59.628;17.852;2023-06-26T00:59:59;15.20;99.90
12123;DHT22;6125;59.628;17.852;2023-06-26T01:02:27;15.20;99.90
12123;DHT22;6125;59.628;17.852;2023-06-26T01:05:01;15.20;99.90
12123;DHT22;6125;59.628;17.852;2023-06-26T01:07:32;15.20;99.90
12123;DHT22;6125;59.628;17.852;2023-06-26T01:10:02;15.10;99.90
12123;DHT22;6125;59.628;17.852;2023-06-26T01:12:30;15.00;99.90
12123;DHT22;6125;59.628;17.852;2023-06-26T01:14:59;15.00;99.90
12123;DHT22;6125;59.628;17.852;2023-06-26T01:17:27;15.00;99.90
12123;DHT22;6125;59.628;17.852;2023-06-26T01:19:58;14.90;99.90
12123;DHT22;6125;59.628;17.852;2023-06-26T01:22:31;14.80;99.90
12123;DHT22;6125;59.628;17.852;2023-06-26T01:25:08;14.80;99.90
12123;DHT22;6125;59.628;17.852;2023-06-26T01:27:39;14.70;99.90
12123;DHT22;6125;59.628;17.852;2023-06-26T01:30:09;14.50;99.90
12123;DHT22;6125;59.628;17.852;2023-06-26T01:32:37;14.50;99.90
12123;DHT22;6125;59.628;17.852;2023-06-26T01:35:06;14.40;99.90
12123;DHT22;6125;59.628;17.852;2023-06-26T01:37:34;14.30;99.90
12123;DHT22;6125;59.628;17.852;2023-06-26T01:40:01;14.10;99.90
12123;DHT22;6125;59.628;17.852;2023-06-26T01:42:31;13.90;99.90
12123;DHT22;6125;59.628;17.852;2023-06-26T01:45:02;13.80;99.90
12123;DHT22;6125;59.628;17.852;2023-06-26T01:47:33;13.80;99.90
12123;DHT22;6125;59.628;17.852;2023-06-26T01:50:06;13.80;99.90
12123;DHT22;6125;59.628;17.852;2023-06-26T01:52:40;13.80;99.90
12123;DHT22;6125;59.628;17.852;2023-06-26T01:55:15;13.80;99.90
12123;DHT22;6125;59.628;17.852;2023-06-26T01:57:44;14.00;99.90
12123;DHT22;6125;59.628;17.852;2023-06-26T02:00:14;14.00;99.90
12123;DHT22;6125;59.628;17.852;2023-06-26T02:02:43;14.10;99.90
12123;DHT22;6125;59.628;17.852;2023-06-26T02:05:12;14.10;99.90
12123;DHT22;6125;59.628;17.852;2023-06-26T02:07:39;14.10;99.90
12123;DHT22;6125;59.628;17.852;2023-06-26T02:10:07;14.10;99.90
12123;DHT22;6125;59.628;17.852;2023-06-26T02:12:35;14.10;99.90
12123;DHT22;6125;59.628;17.852;2023-06-26T02:15:03;14.10;99.90
12123;DHT22;6125;59.628;17.852;2023-06-26T02:17:32;14.10;99.90
12123;DHT22;6125;59.628;17.852;2023-06-26T02:19:59;14.10;99.90
12123;DHT22;6125;59.628;17.852;2023-06-26T02:22:26;14.10;99.90
12123;DHT22;6125;59.628;17.852;2023-06-26T02:24:54;14.10;99.90
12123;DHT22;6125;59.628;17.852;2023-06-26T02:27:21;14.10;99.90
12123;DHT22;6125;59.628;17.852;2023-06-26T02:29:48;14.20;99.90
12123;DHT22;6125;59.628;17.852;2023-06-26T02:32:16;14.20;99.90
12123;DHT22;6125;59.628;17.852;2023-06-26T02:34:44;14.20;99.90
12123;DHT22;6125;59.628;17.852;2023-06-26T02:37:11;14.20;99.90
12123;DHT22;6125;59.628;17.852;2023-06-26T02:39:39;14.30;99.90
12123;DHT22;6125;59.628;17.852;2023-06-26T02:42:06;14.30;99.90
12123;DHT22;6125;59.628;17.852;2023-06-26T02:44:33;14.30;99.90
12123;DHT22;6125;59.628;17.852;2023-06-26T02:47:00;14.40;99.90
12123;DHT22;6125;59.628;17.852;2023-06-26T02:49:27;14.50;99.90
12123;DHT22;6125;59.628;17.852;2023-06-26T02:51:56;14.50;99.90
12123;DHT22;6125;59.628;17.852;2023-06-26T02:54:23;14.60;99.90
12123;DHT22;6125;59.628;17.852;2023-06-26T02:56:50;14.60;99.90
12123;DHT22;6125;59.628;17.852;2023-06-26T02:59:17;14.60;99.90
12123;DHT22;6125;59.628;17.852;2023-06-26T03:01:44;14.70;99.90
12123;DHT22;6125;59.628;17.852;2023-06-26T03:04:11;14.60;99.90
12123;DHT22;6125;59.628;17.852;2023-06-26T03:06:40;14.60;99.90
12123;DHT22;6125;59.628;17.852;2023-06-26T03:09:09;14.60;99.90
12123;DHT22;6125;59.628;17.852;2023-06-26T03:11:37;14.70;99.90
12123;DHT22;6125;59.628;17.852;2023-06-26T03:14:04;14.80;99.90
12123;DHT22;6125;59.628;17.852;2023-06-26T03:16:31;15.00;99.90
12123;DHT22;6125;59.628;17.852;2023-06-26T03:18:58;15.10;99.90
12123;DHT22;6125;59.628;17.852;2023-06-26T03:21:26;15.30;99.90
12123;DHT22;6125;59.628;17.852;2023-06-26T03:23:53;15.40;99.90
12123;DHT22;6125;59.628;17.852;2023-06-26T03:26:21;15.40;99.90
12123;DHT22;6125;59.628;17.852;2023-06-26T03:28:53;15.40;99.90
12123;DHT22;6125;59.628;17.852;2023-06-26T03:31:20;15.30;99.90
12123;DHT22;6125;59.628;17.852;2023-06-26T03:33:47;15.30;99.90
12123;DHT22;6125;59.628;17.852;2023-06-26T03:36:14;15.30;99.90
12123;DHT22;6125;59.628;17.852;2023-06-26T03:38:41;15.20;99.90
12123;DHT22;6125;59.628;17.852;2023-06-26T03:41:08;15.30;99.90
12123;DHT22;6125;59.628;17.852;2023-06-26T03:43:37;15.40;99.90
12123;DHT22;6125;59.628;17.852;2023-06-26T03:46:05;15.50;99.90
12123;DHT22;6125;59.628;17.852;2023-06-26T03:48:32;15.60;99.90
12123;DHT22;6125;59.628;17.852;2023-06-26T03:50:59;15.60;99.90
12123;DHT22;6125;59.628;17.852;2023-06-26T03:53:27;15.70;99.90
12123;DHT22;6125;59.628;17.852;2023-06-26T03:55:55;15.70;99.90
12123;DHT22;6125;59.628;17.852;2023-06-26T03:58:22;15.80;99.90
12123;DHT22;6125;59.628;17.852;2023-06-26T04:00:52;15.80;99.90
12123;DHT22;6125;59.628;17.852;2023-06-26T04:03:19;16.00;99.90
12123;DHT22;6125;59.628;17.852;2023-06-26T04:05:46;16.10;99.90
12123;DHT22;6125;59.628;17.852;2023-06-26T04:08:13;16.30;99.90
12123;DHT22;6125;59.628;17.852;2023-06-26T04:10:40;16.40;99.90
12123;DHT22;6125;59.628;17.852;2023-06-26T04:13:14;16.50;99.90
12123;DHT22;6125;59.628;17.852;2023-06-26T04:15:42;16.70;99.90
12123;DHT22;6125;59.628;17.852;2023-06-26T04:18:10;16.80;99.90
12123;DHT22;6125;59.628;17.852;2023-06-26T04:20:39;17.10;99.90
12123;DHT22;6125;59.628;17.852;2023-06-26T04:23:10;17.30;99.90
12123;DHT22;6125;59.628;17.852;2023-06-26T04:25:37;17.50;99.90
12123;DHT22;6125;59.628;17.852;2023-06-26T04:28:04;17.80;99.90
12123;DHT22;6125;59.628;17.852;2023-06-26T04:30:32;18.00;99.90
12123;DHT22;6125;59.628;17.852;2023-06-26T04:33:00;18.10;99.90
12123;DHT22;6125;59.628;17.852;2023-06-26T04:35:29;18.10;99.90
12123;DHT22;6125;59.628;17.852;2023-06-26T04:37:56;18.00;99.90
12123;DHT22;6125;59.628;17.852;2023-06-26T04:40:23;17.80;99.90
12123;DHT22;6125;59.628;17.852;2023-06-26T04:42:50;17.70;99.90
12123;DHT22;6125;59.628;17.852;2023-06-26T04:45:17;17.70;99.90
12123;DHT22;6125;59.628;17.852;2023-06-26T04:47:44;17.80;99.90
12123;DHT22;6125;59.628;17.852;2023-06-26T04:50:12;17.80;99.90
12123;DHT22;6125;59.628;17.852;2023-06-26T04:52:40;17.90;99.90
12123;DHT22;6125;59.628;17.852;2023-06-26T04:55:07;17.90;99.90
12123;DHT22;6125;59.628;17.852;2023-06-26T04:57:35;17.90;99.90
12123;DHT22;6125;59.628;17.852;2023-06-26T05:00:02;18.00;99.90
12123;DHT22;6125;59.628;17.852;2023-06-26T05:02:33;18.10;99.90
12123;DHT22;6125;59.628;17.852;2023-06-26T05:05:00;18.20;99.90
12123;DHT22;6125;59.628;17.852;2023-06-26T05:07:27;18.20;99.90
12123;DHT22;6125;59.628;17.852;2023-06-26T05:09:56;18.20;99.90
12123;DHT22;6125;59.628;17.852;2023-06-26T05:12:23;18.30;99.90
12123;DHT22;6125;59.628;17.852;2023-06-26T05:14:50;18.20;99.90
12123;DHT22;6125;59.628;17.852;2023-06-26T05:17:17;18.20;99.90
12123;DHT22;6125;59.628;17.852;2023-06-26T05:19:44;18.40;99.90
12123;DHT22;6125;59.628;17.852;2023-06-26T05:22:12;18.50;99.90
12123;DHT22;6125;59.628;17.852;2023-06-26T05:24:40;18.60;99.90
12123;DHT22;6125;59.628;17.852;2023-06-26T05:27:10;18.60;99.90
12123;DHT22;6125;59.628;17.852;2023-06-26T05:29:45;18.60;99.90
12123;DHT22;6125;59.628;17.852;2023-06-26T05:32:16;18.70;99.90
12123;DHT22;6125;59.628;17.852;2023-06-26T05:34:45;18.80;99.90
12123;DHT22;6125;59.628;17.852;2023-06-26T05:37:16;18.90;99.90
12123;DHT22;6125;59.628;17.852;2023-06-26T05:39:46;19.00;99.90
12123;DHT22;6125;59.628;17.852;2023-06-26T05:42:16;19.10;99.90
12123;DHT22;6125;59.628;17.852;2023-06-26T05:44:43;19.20;99.90
12123;DHT22;6125;59.628;17.852;2023-06-26T05:47:10;19.30;99.90
12123;DHT22;6125;59.628;17.852;2023-06-26T05:49:37;19.30;99.90
12123;DHT22;6125;59.628;17.852;2023-06-26T05:52:05;19.40;99.90
12123;DHT22;6125;59.628;17.852;2023-06-26T05:54:33;19.40;99.90
12123;DHT22;6125;59.628;17.852;2023-06-26T05:57:00;19.30;99.90
12123;DHT22;6125;59.628;17.852;2023-06-26T05:59:31;19.30;99.90
12123;DHT22;6125;59.628;17.852;2023-06-26T06:01:59;19.30;99.90
12123;DHT22;6125;59.628;17.852;2023-06-26T06:04:26;19.30;99.90
12123;DHT22;6125;59.628;17.852;2023-06-26T06:06:53;19.50;99.90
12123;DHT22;6125;59.628;17.852;2023-06-26T06:09:20;19.60;99.90
12123;DHT22;6125;59.628;17.852;2023-06-26T06:11:47;19.70;99.90
12123;DHT22;6125;59.628;17.852;2023-06-26T06:14:14;19.80;99.90
12123;DHT22;6125;59.628;17.852;2023-06-26T06:16:43;19.70;99.90
12123;DHT22;6125;59.628;17.852;2023-06-26T06:19:10;19.60;99.90
12123;DHT22;6125;59.628;17.852;2023-06-26T06:21:39;19.70;99.90
12123;DHT22;6125;59.628;17.852;2023-06-26T06:24:06;19.70;99.90
12123;DHT22;6125;59.628;17.852;2023-06-26T06:26:35;19.80;99.90
12123;DHT22;6125;59.628;17.852;2023-06-26T06:29:02;20.00;99.90
12123;DHT22;6125;59.628;17.852;2023-06-26T06:31:29;20.10;99.90
12123;DHT22;6125;59.628;17.852;2023-06-26T06:33:58;20.10;99.90
12123;DHT22;6125;59.628;17.852;2023-06-26T06:36:25;20.20;99.90
12123;DHT22;6125;59.628;17.852;2023-06-26T06:38:52;20.30;99.90
12123;DHT22;6125;59.628;17.852;2023-06-26T06:41:19;20.40;99.90
12123;DHT22;6125;59.628;17.852;2023-06-26T06:43:46;20.50;99.90
12123;DHT22;6125;59.628;17.852;2023-06-26T06:46:14;20.50;99.90
12123;DHT22;6125;59.628;17.852;2023-06-26T06:48:41;20.50;99.90
12123;DHT22;6125;59.628;17.852;2023-06-26T06:51:09;20.50;99.90
12123;DHT22;6125;59.628;17.852;2023-06-26T06:53:36;20.60;99.90
12123;DHT22;6125;59.628;17.852;2023-06-26T06:56:04;20.60;99.90
12123;DHT22;6125;59.628;17.852;2023-06-26T06:58:31;20.70;99.90
12123;DHT22;6125;59.628;17.852;2023-06-26T07:00:59;20.90;99.90
12123;DHT22;6125;59.628;17.852;2023-06-26T07:03:29;20.80;99.90
12123;DHT22;6125;59.628;17.852;2023-06-26T07:05:57;20.80;99.90
12123;DHT22;6125;59.628;17.852;2023-06-26T07:08:25;20.80;99.90
12123;DHT22;6125;59.628;17.852;2023-06-26T07:10:52;20.90;99.90
12123;DHT22;6125;59.628;17.852;2023-06-26T07:13:19;20.90;99.90
12123;DHT22;6125;59.628;17.852;2023-06-26T07:15:46;20.90;99.90
12123;DHT22;6125;59.628;17.852;2023-06-26T07:18:14;21.00;99.90
12123;DHT22;6125;59.628;17.852;2023-06-26T07:20:41;21.10;99.90
12123;DHT22;6125;59.628;17.852;2023-06-26T07:23:09;21.20;99.90
12123;DHT22;6125;59.628;17.852;2023-06-26T07:25:38;21.20;99.90
12123;DHT22;6125;59.628;17.852;2023-06-26T07:28:09;21.20;99.90
12123;DHT22;6125;59.628;17.852;2023-06-26T07:30:37;21.20;99.90
12123;DHT22;6125;59.628;17.852;2023-06-26T07:33:04;21.20;99.90
12123;DHT22;6125;59.628;17.852;2023-06-26T07:35:31;21.40;99.90
12123;DHT22;6125;59.628;17.852;2023-06-26T07:37:58;21.50;99.90
12123;DHT22;6125;59.628;17.852;2023-06-26T07:40:26;21.60;99.90
12123;DHT22;6125;59.628;17.852;2023-06-26T07:42:54;21.80;99.90
12123;DHT22;6125;59.628;17.852;2023-06-26T07:45:24;21.90;99.90
12123;DHT22;6125;59.628;17.852;2023-06-26T07:47:51;22.00;99.90
12123;DHT22;6125;59.628;17.852;2023-06-26T07:50:18;22.00;99.90
12123;DHT22;6125;59.628;17.852;2023-06-26T07:52:48;22.20;99.90
12123;DHT22;6125;59.628;17.852;2023-06-26T07:55:17;22.10;99.90
12123;DHT22;6125;59.628;17.852;2023-06-26T07:57:44;22.20;99.90
12123;DHT22;6125;59.628;17.852;2023-06-26T08:00:14;22.20;99.90
12123;DHT22;6125;59.628;17.852;2023-06-26T08:02:42;22.30;99.90
12123;DHT22;6125;59.628;17.852;2023-06-26T08:05:09;22.30;99.90
12123;DHT22;6125;59.628;17.852;2023-06-26T08:07:36;22.30;99.90
12123;DHT22;6125;59.628;17.852;2023-06-26T08:10:04;22.40;99.90
12123;DHT22;6125;59.628;17.852;2023-06-26T08:12:31;22.60;99.90
12123;DHT22;6125;59.628;17.852;2023-06-26T08:14:58;22.70;99.90
12123;DHT22;6125;59.628;17.852;2023-06-26T08:17:29;22.80;99.90
12123;DHT22;6125;59.628;17.852;2023-06-26T08:19:56;22.90;99.90
12123;DHT22;6125;59.628;17.852;2023-06-26T08:22:24;23.00;99.90
12123;DHT22;6125;59.628;17.852;2023-06-26T08:24:51;23.00;99.90
12123;DHT22;6125;59.628;17.852;2023-06-26T08:27:18;23.10;99.90
12123;DHT22;6125;59.628;17.852;2023-06-26T08:29:45;23.10;99.90
12123;DHT22;6125;59.628;17.852;2023-06-26T08:32:13;23.20;99.90
12123;DHT22;6125;59.628;17.852;2023-06-26T08:34:41;23.30;99.90
12123;DHT22;6125;59.628;17.852;2023-06-26T08:37:09;23.40;99.90
12123;DHT22;6125;59.628;17.852;2023-06-26T08:39:36;23.40;99.90
12123;DHT22;6125;59.628;17.852;2023-06-26T08:42:03;23.50;99.90
12123;DHT22;6125;59.628;17.852;2023-06-26T08:44:30;23.40;99.90
12123;DHT22;6125;59.628;17.852;2023-06-26T08:46:59;23.30;99.90
12123;DHT22;6125;59.628;17.852;2023-06-26T08:49:37;23.40;99.90
12123;DHT22;6125;59.628;17.852;2023-06-26T08:52:16;23.50;99.90
12123;DHT22;6125;59.628;17.852;2023-06-26T08:54:46;23.50;99.90
12123;DHT22;6125;59.628;17.852;2023-06-26T08:57:18;23.60;99.90
12123;DHT22;6125;59.628;17.852;2023-06-26T08:59:46;23.40;99.90
12123;DHT22;6125;59.628;17.852;2023-06-26T09:02:14;23.40;99.90
12123;DHT22;6125;59.628;17.852;2023-06-26T09:04:42;23.50;99.90
12123;DHT22;6125;59.628;17.852;2023-06-26T09:07:10;23.60;99.90
12123;DHT22;6125;59.628;17.852;2023-06-26T09:09:37;23.80;99.90
12123;DHT22;6125;59.628;17.852;2023-06-26T09:12:05;23.90;99.90
12123;DHT22;6125;59.628;17.852;2023-06-26T09:14:32;24.00;99.90
12123;DHT22;6125;59.628;17.852;2023-06-26T09:17:00;24.20;99.90
12123;DHT22;6125;59.628;17.852;2023-06-26T09:19:27;24.20;99.90
12123;DHT22;6125;59.628;17.852;2023-06-26T09:21:55;24.20;99.90
12123;DHT22;6125;59.628;17.852;2023-06-26T09:24:23;24.20;99.90
12123;DHT22;6125;59.628;17.852;2023-06-26T09:26:51;24.10;99.90
12123;DHT22;6125;59.628;17.852;2023-06-26T09:29:26;24.10;99.90
12123;DHT22;6125;59.628;17.852;2023-06-26T09:31:56;24.10;99.90
12123;DHT22;6125;59.628;17.852;2023-06-26T09:34:30;24.30;99.90
12123;DHT22;6125;59.628;17.852;2023-06-26T09:36:58;24.40;99.90
12123;DHT22;6125;59.628;17.852;2023-06-26T09:39:30;24.60;99.90
12123;DHT22;6125;59.628;17.852;2023-06-26T09:41:58;24.70;99.90
12123;DHT22;6125;59.628;17.852;2023-06-26T09:44:28;24.80;99.90
12123;DHT22;6125;59.628;17.852;2023-06-26T09:46:57;24.80;99.90
12123;DHT22;6125;59.628;17.852;2023-06-26T09:49:24;24.90;99.90
12123;DHT22;6125;59.628;17.852;2023-06-26T09:51:53;25.00;99.90
12123;DHT22;6125;59.628;17.852;2023-06-26T09:54:22;25.10;99.90
12123;DHT22;6125;59.628;17.852;2023-06-26T09:56:52;25.10;99.90
12123;DHT22;6125;59.628;17.852;2023-06-26T09:59:22;25.20;99.90
12123;DHT22;6125;59.628;17.852;2023-06-26T10:01:59;25.30;99.90
12123;DHT22;6125;59.628;17.852;2023-06-26T10:04:26;25.40;99.90
12123;DHT22;6125;59.628;17.852;2023-06-26T10:06:56;25.50;99.90
12123;DHT22;6125;59.628;17.852;2023-06-26T10:09:23;25.60;99.90
12123;DHT22;6125;59.628;17.852;2023-06-26T10:11:56;25.70;99.90
12123;DHT22;6125;59.628;17.852;2023-06-26T10:14:26;25.70;99.90
12123;DHT22;6125;59.628;17.852;2023-06-26T10:16:58;25.80;99.90
12123;DHT22;6125;59.628;17.852;2023-06-26T10:19:27;25.90;99.90
12123;DHT22;6125;59.628;17.852;2023-06-26T10:21:55;26.00;99.90
12123;DHT22;6125;59.628;17.852;2023-06-26T10:24:23;26.00;99.90
12123;DHT22;6125;59.628;17.852;2023-06-26T10:26:59;26.00;99.90
12123;DHT22;6125;59.628;17.852;2023-06-26T10:29:27;26.20;99.90
12123;DHT22;6125;59.628;17.852;2023-06-26T10:31:57;26.40;99.90
12123;DHT22;6125;59.628;17.852;2023-06-26T10:34:25;26.40;99.90
12123;DHT22;6125;59.628;17.852;2023-06-26T10:36:59;26.40;99.90
12123;DHT22;6125;59.628;17.852;2023-06-26T10:39:26;26.60;99.90
12123;DHT22;6125;59.628;17.852;2023-06-26T10:42:08;26.70;99.90
12123;DHT22;6125;59.628;17.852;2023-06-26T10:44:43;26.80;99.90
12123;DHT22;6125;59.628;17.852;2023-06-26T10:47:10;27.00;99.90
12123;DHT22;6125;59.628;17.852;2023-06-26T10:49:38;27.30;99.90
12123;DHT22;6125;59.628;17.852;2023-06-26T10:52:06;27.40;99.90
12123;DHT22;6125;59.628;17.852;2023-06-26T10:54:33;27.60;99.90
12123;DHT22;6125;59.628;17.852;2023-06-26T10:57:02;27.60;99.90
12123;DHT22;6125;59.628;17.852;2023-06-26T10:59:32;27.60;99.90
12123;DHT22;6125;59.628;17.852;2023-06-26T11:02:00;27.90;99.90
12123;DHT22;6125;59.628;17.852;2023-06-26T11:04:38;28.00;99.90
12123;DHT22;6125;59.628;17.852;2023-06-26T11:07:16;28.10;99.90
12123;DHT22;6125;59.628;17.852;2023-06-26T11:09:54;28.20;99.90
12123;DHT22;6125;59.628;17.852;2023-06-26T11:12:39;28.20;99.90
12123;DHT22;6125;59.628;17.852;2023-06-26T11:15:08;28.20;99.90
12123;DHT22;6125;59.628;17.852;2023-06-26T11:17:35;28.30;99.90
12123;DHT22;6125;59.628;17.852;2023-06-26T11:20:04;28.30;99.90
12123;DHT22;6125;59.628;17.852;2023-06-26T11:22:34;28.20;99.90
12123;DHT22;6125;59.628;17.852;2023-06-26T11:25:02;28.20;99.90
12123;DHT22;6125;59.628;17.852;2023-06-26T11:27:37;28.20;99.90
12123;DHT22;6125;59.628;17.852;2023-06-26T11:30:07;28.20;99.90
12123;DHT22;6125;59.628;17.852;2023-06-26T11:32:35;28.30;99.90
12123;DHT22;6125;59.628;17.852;2023-06-26T11:35:03;28.20;99.90
12123;DHT22;6125;59.628;17.852;2023-06-26T11:37:31;28.30;99.90
12123;DHT22;6125;59.628;17.852;2023-06-26T11:39:58;28.30;99.90
12123;DHT22;6125;59.628;17.852;2023-06-26T11:42:25;28.30;99.90
12123;DHT22;6125;59.628;17.852;2023-06-26T11:44:53;28.30;99.90
12123;DHT22;6125;59.628;17.852;2023-06-26T11:47:22;28.30;99.90
12123;DHT22;6125;59.628;17.852;2023-06-26T11:49:49;28.30;99.90
12123;DHT22;6125;59.628;17.852;2023-06-26T11:52:16;28.10;99.90
12123;DHT22;6125;59.628;17.852;2023-06-26T11:54:44;28.00;99.90
12123;DHT22;6125;59.628;17.852;2023-06-26T11:57:14;28.00;99.90
12123;DHT22;6125;59.628;17.852;2023-06-26T11:59:44;28.10;99.90
12123;DHT22;6125;59.628;17.852;2023-06-26T12:02:13;28.20;99.70
12123;DHT22;6125;59.628;17.852;2023-06-26T12:04:43;28.10;99.70
12123;DHT22;6125;59.628;17.852;2023-06-26T12:07:13;27.90;99.90
12123;DHT22;6125;59.628;17.852;2023-06-26T12:09:41;27.90;99.90
12123;DHT22;6125;59.628;17.852;2023-06-26T12:12:10;27.70;99.90
12123;DHT22;6125;59.628;17.852;2023-06-26T12:14:38;27.50;99.90
12123;DHT22;6125;59.628;17.852;2023-06-26T12:17:09;27.50;99.90
12123;DHT22;6125;59.628;17.852;2023-06-26T12:19:37;27.70;99.90
12123;DHT22;6125;59.628;17.852;2023-06-26T12:22:09;27.90;99.40
12123;DHT22;6125;59.628;17.852;2023-06-26T12:24:38;28.10;99.00
12123;DHT22;6125;59.628;17.852;2023-06-26T12:27:08;28.20;99.30
12123;DHT22;6125;59.628;17.852;2023-06-26T12:29:37;28.40;98.60
12123;DHT22;6125;59.628;17.852;2023-06-26T12:32:08;28.60;98.50
12123;DHT22;6125;59.628;17.852;2023-06-26T12:34:36;28.70;99.00
12123;DHT22;6125;59.628;17.852;2023-06-26T12:37:05;28.80;98.80
12123;DHT22;6125;59.628;17.852;2023-06-26T12:39:47;28.80;97.90
12123;DHT22;6125;59.628;17.852;2023-06-26T12:42:15;28.70;97.70
12123;DHT22;6125;59.628;17.852;2023-06-26T12:44:42;28.70;98.40
12123;DHT22;6125;59.628;17.852;2023-06-26T12:47:09;28.60;98.30
12123;DHT22;6125;59.628;17.852;2023-06-26T12:49:40;28.60;98.60
12123;DHT22;6125;59.628;17.852;2023-06-26T12:52:08;28.70;98.90
12123;DHT22;6125;59.628;17.852;2023-06-26T12:54:36;28.80;98.80
12123;DHT22;6125;59.628;17.852;2023-06-26T12:57:05;29.00;99.00
12123;DHT22;6125;59.628;17.852;2023-06-26T12:59:33;29.00;98.50
12123;DHT22;6125;59.628;17.852;2023-06-26T13:02:00;29.00;98.60
12123;DHT22;6125;59.628;17.852;2023-06-26T13:04:28;28.90;98.80
12123;DHT22;6125;59.628;17.852;2023-06-26T13:06:55;28.70;98.90
12123;DHT22;6125;59.628;17.852;2023-06-26T13:09:32;28.70;99.10
12123;DHT22;6125;59.628;17.852;2023-06-26T13:12:01;28.80;98.80
12123;DHT22;6125;59.628;17.852;2023-06-26T13:14:30;28.80;98.30
12123;DHT22;6125;59.628;17.852;2023-06-26T13:16:57;28.70;98.20
12123;DHT22;6125;59.628;17.852;2023-06-26T13:19:24;28.80;98.50
12123;DHT22;6125;59.628;17.852;2023-06-26T13:21:51;28.90;98.10
12123;DHT22;6125;59.628;17.852;2023-06-26T13:24:19;29.00;97.30
12123;DHT22;6125;59.628;17.852;2023-06-26T13:26:46;29.10;97.40
12123;DHT22;6125;59.628;17.852;2023-06-26T13:29:13;29.30;97.50
12123;DHT22;6125;59.628;17.852;2023-06-26T13:31:43;29.50;96.80
12123;DHT22;6125;59.628;17.852;2023-06-26T13:34:20;29.60;96.90
12123;DHT22;6125;59.628;17.852;2023-06-26T13:36:47;29.50;96.80
12123;DHT22;6125;59.628;17.852;2023-06-26T13:39:14;29.30;97.20
12123;DHT22;6125;59.628;17.852;2023-06-26T13:41:42;29.30;96.90
12123;DHT22;6125;59.628;17.852;2023-06-26T13:44:09;29.20;97.10
12123;DHT22;6125;59.628;17.852;2023-06-26T13:46:36;29.20;96.70
12123;DHT22;6125;59.628;17.852;2023-06-26T13:49:04;29.30;96.80
12123;DHT22;6125;59.628;17.852;2023-06-26T13:51:31;29.40;96.70
12123;DHT22;6125;59.628;17.852;2023-06-26T13:53:58;29.60;96.80
12123;DHT22;6125;59.628;17.852;2023-06-26T13:56:26;29.90;96.70
12123;DHT22;6125;59.628;17.852;2023-06-26T13:58:56;30.10;95.80
12123;DHT22;6125;59.628;17.852;2023-06-26T14:01:24;30.20;95.80
12123;DHT22;6125;59.628;17.852;2023-06-26T14:03:51;30.10;95.80
12123;DHT22;6125;59.628;17.852;2023-06-26T14:06:19;29.80;95.70
12123;DHT22;6125;59.628;17.852;2023-06-26T14:08:46;29.70;96.00
12123;DHT22;6125;59.628;17.852;2023-06-26T14:11:13;29.70;95.90
12123;DHT22;6125;59.628;17.852;2023-06-26T14:13:41;29.60;95.90
12123;DHT22;6125;59.628;17.852;2023-06-26T14:16:08;29.60;95.50
12123;DHT22;6125;59.628;17.852;2023-06-26T14:18:35;29.30;95.60
12123;DHT22;6125;59.628;17.852;2023-06-26T14:21:02;29.30;96.00
12123;DHT22;6125;59.628;17.852;2023-06-26T14:23:31;29.50;95.90
12123;DHT22;6125;59.628;17.852;2023-06-26T14:25:58;29.80;95.70
12123;DHT22;6125;59.628;17.852;2023-06-26T14:28:25;30.10;95.40
12123;DHT22;6125;59.628;17.852;2023-06-26T14:30:52;30.50;94.80
12123;DHT22;6125;59.628;17.852;2023-06-26T14:33:19;30.40;94.60
12123;DHT22;6125;59.628;17.852;2023-06-26T14:35:46;30.30;94.40
12123;DHT22;6125;59.628;17.852;2023-06-26T14:38:13;29.90;94.40
12123;DHT22;6125;59.628;17.852;2023-06-26T14:40:41;29.60;94.50
12123;DHT22;6125;59.628;17.852;2023-06-26T14:43:08;29.70;94.70
12123;DHT22;6125;59.628;17.852;2023-06-26T14:45:35;30.00;94.80
12123;DHT22;6125;59.628;17.852;2023-06-26T14:48:03;30.30;94.80
12123;DHT22;6125;59.628;17.852;2023-06-26T14:50:30;30.50;94.20
12123;DHT22;6125;59.628;17.852;2023-06-26T14:52:57;30.60;94.10
12123;DHT22;6125;59.628;17.852;2023-06-26T14:55:31;30.80;93.40
12123;DHT22;6125;59.628;17.852;2023-06-26T14:57:59;30.90;93.60
12123;DHT22;6125;59.628;17.852;2023-06-26T15:00:26;31.00;93.40
12123;DHT22;6125;59.628;17.852;2023-06-26T15:02:53;31.10;93.50
12123;DHT22;6125;59.628;17.852;2023-06-26T15:05:20;31.30;93.00
12123;DHT22;6125;59.628;17.852;2023-06-26T15:07:47;31.60;92.90
12123;DHT22;6125;59.628;17.852;2023-06-26T15:10:15;31.90;92.40
12123;DHT22;6125;59.628;17.852;2023-06-26T15:12:42;32.40;92.40
12123;DHT22;6125;59.628;17.852;2023-06-26T15:15:11;33.30;91.30
12123;DHT22;6125;59.628;17.852;2023-06-26T15:17:38;33.40;91.00
12123;DHT22;6125;59.628;17.852;2023-06-26T15:20:06;34.00;90.80
12123;DHT22;6125;59.628;17.852;2023-06-26T15:22:33;34.80;90.10
12123;DHT22;6125;59.628;17.852;2023-06-26T15:25:00;35.60;88.50
12123;DHT22;6125;59.628;17.852;2023-06-26T15:27:28;36.10;86.80
12123;DHT22;6125;59.628;17.852;2023-06-26T15:29:55;36.60;84.50
12123;DHT22;6125;59.628;17.852;2023-06-26T15:32:23;37.10;82.80
12123;DHT22;6125;59.628;17.852;2023-06-26T15:34:50;37.90;79.60
12123;DHT22;6125;59.628;17.852;2023-06-26T15:37:18;38.20;77.40